sensor_id;sensor_type;location;lat;lon;timestamp;P1;durP1;ratioP1;P2;durP2;ratioP2
59492;SDS011;45497;43.996;22.876;2022-11-25T00:01:06;5.63;;;3.13;;
59492;SDS011;45497;43.996;22.876;2022-11-25T00:03:36;6.80;;;3.20;;
59492;SDS011;45497;43.996;22.876;2022-11-25T00:08:39;5.72;;;2.88;;
59492;SDS011;45497;43.996;22.876;2022-11-25T00:11:05;4.57;;;2.85;;
59492;SDS011;45497;43.996;22.876;2022-11-25T00:13:31;5.65;;;3.13;;
59492;SDS011;45497;43.996;22.876;2022-11-25T00:16:04;4.50;;;2.95;;
59492;SDS011;45497;43.996;22.876;2022-11-25T00:18:32;7.47;;;3.08;;
59492;SDS011;45497;43.996;22.876;2022-11-25T00:20:57;5.97;;;3.03;;
59492;SDS011;45497;43.996;22.876;2022-11-25T00:23:23;4.32;;;3.03;;
59492;SDS011;45497;43.996;22.876;2022-11-25T00:25:49;5.82;;;3.20;;
59492;SDS011;45497;43.996;22.876;2022-11-25T00:28:15;5.27;;;3.10;;
59492;SDS011;45497;43.996;22.876;2022-11-25T00:30:42;5.07;;;3.20;;
59492;SDS011;45497;43.996;22.876;2022-11-25T00:33:07;6.85;;;3.10;;
59492;SDS011;45497;43.996;22.876;2022-11-25T00:35:33;6.67;;;3.10;;
59492;SDS011;45497;43.996;22.876;2022-11-25T00:37:59;6.13;;;2.70;;
59492;SDS011;45497;43.996;22.876;2022-11-25T00:40:25;6.40;;;2.80;;
59492;SDS011;45497;43.996;22.876;2022-11-25T00:42:50;5.60;;;2.83;;
59492;SDS011;45497;43.996;22.876;2022-11-25T00:45:34;6.47;;;2.85;;
59492;SDS011;45497;43.996;22.876;2022-11-25T00:48:00;4.70;;;2.35;;
59492;SDS011;45497;43.996;22.876;2022-11-25T00:50:25;4.83;;;2.63;;
59492;SDS011;45497;43.996;22.876;2022-11-25T00:52:51;7.27;;;2.80;;
59492;SDS011;45497;43.996;22.876;2022-11-25T00:55:16;6.93;;;2.80;;
59492;SDS011;45497;43.996;22.876;2022-11-25T00:57:41;5.13;;;2.37;;
59492;SDS011;45497;43.996;22.876;2022-11-25T01:00:08;4.38;;;2.17;;
59492;SDS011;45497;43.996;22.876;2022-11-25T01:02:34;4.50;;;2.40;;
59492;SDS011;45497;43.996;22.876;2022-11-25T01:05:00;4.68;;;2.60;;
59492;SDS011;45497;43.996;22.876;2022-11-25T01:07:25;6.03;;;2.40;;
59492;SDS011;45497;43.996;22.876;2022-11-25T01:09:51;4.57;;;2.23;;
59492;SDS011;45497;43.996;22.876;2022-11-25T01:12:16;4.68;;;2.10;;
59492;SDS011;45497;43.996;22.876;2022-11-25T01:14:42;4.07;;;2.30;;
59492;SDS011;45497;43.996;22.876;2022-11-25T01:17:07;6.33;;;2.57;;
59492;SDS011;45497;43.996;22.876;2022-11-25T01:19:33;5.53;;;2.53;;
59492;SDS011;45497;43.996;22.876;2022-11-25T01:22:04;4.20;;;2.17;;
59492;SDS011;45497;43.996;22.876;2022-11-25T01:24:30;4.88;;;2.30;;
59492;SDS011;45497;43.996;22.876;2022-11-25T01:26:55;4.53;;;2.10;;
59492;SDS011;45497;43.996;22.876;2022-11-25T01:29:20;4.50;;;1.95;;
59492;SDS011;45497;43.996;22.876;2022-11-25T01:31:46;4.77;;;2.10;;
59492;SDS011;45497;43.996;22.876;2022-11-25T01:34:13;4.13;;;2.03;;
59492;SDS011;45497;43.996;22.876;2022-11-25T01:36:42;5.53;;;2.30;;
59492;SDS011;45497;43.996;22.876;2022-11-25T01:39:07;5.43;;;2.10;;
59492;SDS011;45497;43.996;22.876;2022-11-25T01:41:37;5.13;;;2.10;;
59492;SDS011;45497;43.996;22.876;2022-11-25T01:46:49;6.60;;;2.40;;
59492;SDS011;45497;43.996;22.876;2022-11-25T01:49:18;3.75;;;2.13;;
59492;SDS011;45497;43.996;22.876;2022-11-25T01:54:24;3.17;;;2.17;;
59492;SDS011;45497;43.996;22.876;2022-11-25T01:56:55;3.10;;;1.90;;
59492;SDS011;45497;43.996;22.876;2022-11-25T01:59:23;4.40;;;2.30;;
59492;SDS011;45497;43.996;22.876;2022-11-25T02:01:49;5.38;;;2.25;;
59492;SDS011;45497;43.996;22.876;2022-11-25T02:04:15;4.33;;;2.13;;
59492;SDS011;45497;43.996;22.876;2022-11-25T02:06:45;4.25;;;2.15;;
59492;SDS011;45497;43.996;22.876;2022-11-25T02:09:14;4.78;;;1.95;;
59492;SDS011;45497;43.996;22.876;2022-11-25T02:11:42;4.57;;;1.88;;
59492;SDS011;45497;43.996;22.876;2022-11-25T02:14:11;4.03;;;2.00;;
59492;SDS011;45497;43.996;22.876;2022-11-25T02:16:37;5.63;;;2.20;;
59492;SDS011;45497;43.996;22.876;2022-11-25T02:19:03;5.93;;;2.53;;
59492;SDS011;45497;43.996;22.876;2022-11-25T02:21:34;4.45;;;1.98;;
59492;SDS011;45497;43.996;22.876;2022-11-25T02:26:39;4.18;;;2.20;;
59492;SDS011;45497;43.996;22.876;2022-11-25T02:29:04;5.23;;;2.50;;
59492;SDS011;45497;43.996;22.876;2022-11-25T02:31:30;4.83;;;2.13;;
59492;SDS011;45497;43.996;22.876;2022-11-25T02:33:55;4.53;;;2.22;;
59492;SDS011;45497;43.996;22.876;2022-11-25T02:36:21;6.03;;;2.30;;
59492;SDS011;45497;43.996;22.876;2022-11-25T02:38:54;4.40;;;1.98;;
59492;SDS011;45497;43.996;22.876;2022-11-25T02:41:26;4.07;;;2.05;;
59492;SDS011;45497;43.996;22.876;2022-11-25T02:43:55;2.88;;;1.70;;
59492;SDS011;45497;43.996;22.876;2022-11-25T02:46:22;6.32;;;2.22;;
59492;SDS011;45497;43.996;22.876;2022-11-25T02:48:49;5.25;;;2.03;;
59492;SDS011;45497;43.996;22.876;2022-11-25T02:51:17;4.80;;;2.10;;
59492;SDS011;45497;43.996;22.876;2022-11-25T02:53:44;6.00;;;1.70;;
59492;SDS011;45497;43.996;22.876;2022-11-25T02:56:11;4.32;;;2.13;;
59492;SDS011;45497;43.996;22.876;2022-11-25T02:58:38;5.65;;;2.22;;
59492;SDS011;45497;43.996;22.876;2022-11-25T03:01:04;5.25;;;2.30;;
59492;SDS011;45497;43.996;22.876;2022-11-25T03:03:30;5.07;;;2.05;;
59492;SDS011;45497;43.996;22.876;2022-11-25T03:05:55;4.35;;;2.13;;
59492;SDS011;45497;43.996;22.876;2022-11-25T03:08:21;5.23;;;2.60;;
59492;SDS011;45497;43.996;22.876;2022-11-25T03:10:46;4.73;;;1.90;;
59492;SDS011;45497;43.996;22.876;2022-11-25T03:13:12;5.60;;;2.35;;
59492;SDS011;45497;43.996;22.876;2022-11-25T03:15:37;5.93;;;2.50;;
59492;SDS011;45497;43.996;22.876;2022-11-25T03:18:03;4.20;;;2.13;;
59492;SDS011;45497;43.996;22.876;2022-11-25T03:20:29;5.32;;;2.17;;
59492;SDS011;45497;43.996;22.876;2022-11-25T03:22:55;5.63;;;2.30;;
59492;SDS011;45497;43.996;22.876;2022-11-25T03:25:21;5.77;;;2.60;;
59492;SDS011;45497;43.996;22.876;2022-11-25T03:27:46;5.07;;;2.45;;
59492;SDS011;45497;43.996;22.876;2022-11-25T03:30:13;4.77;;;2.43;;
59492;SDS011;45497;43.996;22.876;2022-11-25T03:32:41;5.00;;;2.70;;
59492;SDS011;45497;43.996;22.876;2022-11-25T03:35:07;6.10;;;2.72;;
59492;SDS011;45497;43.996;22.876;2022-11-25T03:37:33;5.78;;;2.83;;
59492;SDS011;45497;43.996;22.876;2022-11-25T03:39:59;6.13;;;2.80;;
59492;SDS011;45497;43.996;22.876;2022-11-25T03:42:24;5.77;;;3.00;;
59492;SDS011;45497;43.996;22.876;2022-11-25T03:44:50;5.00;;;2.50;;
59492;SDS011;45497;43.996;22.876;2022-11-25T03:47:15;4.67;;;2.60;;
59492;SDS011;45497;43.996;22.876;2022-11-25T03:49:41;5.00;;;2.33;;
59492;SDS011;45497;43.996;22.876;2022-11-25T03:52:06;5.60;;;2.80;;
59492;SDS011;45497;43.996;22.876;2022-11-25T03:54:32;6.53;;;2.90;;
59492;SDS011;45497;43.996;22.876;2022-11-25T03:56:57;3.90;;;2.13;;
59492;SDS011;45497;43.996;22.876;2022-11-25T03:59:22;3.87;;;2.67;;
59492;SDS011;45497;43.996;22.876;2022-11-25T04:01:48;4.03;;;2.80;;
59492;SDS011;45497;43.996;22.876;2022-11-25T04:04:13;6.55;;;3.15;;
59492;SDS011;45497;43.996;22.876;2022-11-25T04:06:39;3.87;;;2.73;;
59492;SDS011;45497;43.996;22.876;2022-11-25T04:09:05;7.63;;;3.83;;
59492;SDS011;45497;43.996;22.876;2022-11-25T04:11:31;5.43;;;3.28;;
59492;SDS011;45497;43.996;22.876;2022-11-25T04:14:15;5.50;;;3.10;;
59492;SDS011;45497;43.996;22.876;2022-11-25T04:16:41;4.90;;;3.00;;
59492;SDS011;45497;43.996;22.876;2022-11-25T04:19:07;5.13;;;3.00;;
59492;SDS011;45497;43.996;22.876;2022-11-25T04:21:32;5.25;;;2.78;;
59492;SDS011;45497;43.996;22.876;2022-11-25T04:23:58;5.00;;;3.20;;
59492;SDS011;45497;43.996;22.876;2022-11-25T04:26:23;5.80;;;3.80;;
59492;SDS011;45497;43.996;22.876;2022-11-25T04:28:49;5.28;;;3.30;;
59492;SDS011;45497;43.996;22.876;2022-11-25T04:31:14;4.40;;;3.10;;
59492;SDS011;45497;43.996;22.876;2022-11-25T04:33:40;6.37;;;3.70;;
59492;SDS011;45497;43.996;22.876;2022-11-25T04:36:05;6.75;;;3.95;;
59492;SDS011;45497;43.996;22.876;2022-11-25T04:38:31;4.68;;;3.05;;
59492;SDS011;45497;43.996;22.876;2022-11-25T04:40:57;6.47;;;3.73;;
59492;SDS011;45497;43.996;22.876;2022-11-25T04:43:22;6.17;;;3.83;;
59492;SDS011;45497;43.996;22.876;2022-11-25T04:45:48;7.07;;;3.90;;
59492;SDS011;45497;43.996;22.876;2022-11-25T04:48:13;7.68;;;4.43;;
59492;SDS011;45497;43.996;22.876;2022-11-25T04:50:39;9.63;;;3.83;;
59492;SDS011;45497;43.996;22.876;2022-11-25T04:53:04;5.50;;;3.90;;
59492;SDS011;45497;43.996;22.876;2022-11-25T04:55:30;6.97;;;4.00;;
59492;SDS011;45497;43.996;22.876;2022-11-25T04:57:55;6.60;;;3.87;;
59492;SDS011;45497;43.996;22.876;2022-11-25T05:00:21;5.87;;;3.30;;
59492;SDS011;45497;43.996;22.876;2022-11-25T05:02:47;5.80;;;3.33;;
59492;SDS011;45497;43.996;22.876;2022-11-25T05:05:12;4.75;;;3.58;;
59492;SDS011;45497;43.996;22.876;2022-11-25T05:07:38;8.50;;;4.80;;
59492;SDS011;45497;43.996;22.876;2022-11-25T05:10:04;7.17;;;4.50;;
59492;SDS011;45497;43.996;22.876;2022-11-25T05:12:30;8.48;;;5.00;;
59492;SDS011;45497;43.996;22.876;2022-11-25T05:14:55;8.40;;;6.47;;
59492;SDS011;45497;43.996;22.876;2022-11-25T05:17:30;6.03;;;4.10;;
59492;SDS011;45497;43.996;22.876;2022-11-25T05:19:56;7.78;;;5.47;;
59492;SDS011;45497;43.996;22.876;2022-11-25T05:22:26;10.50;;;6.53;;
59492;SDS011;45497;43.996;22.876;2022-11-25T05:24:53;13.35;;;7.30;;
59492;SDS011;45497;43.996;22.876;2022-11-25T05:27:19;16.55;;;8.73;;
59492;SDS011;45497;43.996;22.876;2022-11-25T05:29:46;10.10;;;6.57;;
59492;SDS011;45497;43.996;22.876;2022-11-25T05:32:11;6.80;;;4.28;;
59492;SDS011;45497;43.996;22.876;2022-11-25T05:34:37;7.32;;;3.95;;
59492;SDS011;45497;43.996;22.876;2022-11-25T05:37:03;5.07;;;3.55;;
59492;SDS011;45497;43.996;22.876;2022-11-25T05:39:29;6.30;;;3.85;;
59492;SDS011;45497;43.996;22.876;2022-11-25T05:41:54;7.83;;;4.37;;
59492;SDS011;45497;43.996;22.876;2022-11-25T05:44:20;5.70;;;3.60;;
59492;SDS011;45497;43.996;22.876;2022-11-25T05:46:45;5.72;;;3.60;;
59492;SDS011;45497;43.996;22.876;2022-11-25T05:49:12;5.05;;;3.67;;
59492;SDS011;45497;43.996;22.876;2022-11-25T05:51:38;7.47;;;4.00;;
59492;SDS011;45497;43.996;22.876;2022-11-25T05:54:04;7.73;;;4.07;;
59492;SDS011;45497;43.996;22.876;2022-11-25T05:56:30;6.18;;;3.78;;
59492;SDS011;45497;43.996;22.876;2022-11-25T05:58:57;7.45;;;4.70;;
59492;SDS011;45497;43.996;22.876;2022-11-25T06:01:23;8.88;;;4.80;;
59492;SDS011;45497;43.996;22.876;2022-11-25T06:03:48;11.77;;;6.57;;
59492;SDS011;45497;43.996;22.876;2022-11-25T06:06:14;21.17;;;12.50;;
59492;SDS011;45497;43.996;22.876;2022-11-25T06:08:39;24.42;;;14.43;;
59492;SDS011;45497;43.996;22.876;2022-11-25T06:11:06;19.00;;;10.87;;
59492;SDS011;45497;43.996;22.876;2022-11-25T06:13:36;16.00;;;9.55;;
59492;SDS011;45497;43.996;22.876;2022-11-25T06:16:06;11.30;;;7.57;;
59492;SDS011;45497;43.996;22.876;2022-11-25T06:18:33;11.30;;;6.95;;
59492;SDS011;45497;43.996;22.876;2022-11-25T06:21:00;9.27;;;5.78;;
59492;SDS011;45497;43.996;22.876;2022-11-25T06:23:25;8.23;;;5.50;;
59492;SDS011;45497;43.996;22.876;2022-11-25T06:25:51;14.95;;;6.45;;
59492;SDS011;45497;43.996;22.876;2022-11-25T06:28:17;9.43;;;5.80;;
59492;SDS011;45497;43.996;22.876;2022-11-25T06:30:42;10.23;;;6.63;;
59492;SDS011;45497;43.996;22.876;2022-11-25T06:33:08;9.37;;;6.70;;
59492;SDS011;45497;43.996;22.876;2022-11-25T06:35:33;9.35;;;6.15;;
59492;SDS011;45497;43.996;22.876;2022-11-25T06:37:59;7.45;;;5.45;;
59492;SDS011;45497;43.996;22.876;2022-11-25T06:40:25;13.30;;;8.13;;
59492;SDS011;45497;43.996;22.876;2022-11-25T06:42:50;8.40;;;5.80;;
59492;SDS011;45497;43.996;22.876;2022-11-25T06:45:16;10.17;;;5.90;;
59492;SDS011;45497;43.996;22.876;2022-11-25T06:47:41;9.05;;;6.43;;
59492;SDS011;45497;43.996;22.876;2022-11-25T06:50:07;7.60;;;5.30;;
59492;SDS011;45497;43.996;22.876;2022-11-25T06:52:33;7.57;;;4.75;;
59492;SDS011;45497;43.996;22.876;2022-11-25T06:54:59;7.45;;;5.00;;
59492;SDS011;45497;43.996;22.876;2022-11-25T06:57:24;13.43;;;6.23;;
59492;SDS011;45497;43.996;22.876;2022-11-25T06:59:50;7.50;;;5.10;;
59492;SDS011;45497;43.996;22.876;2022-11-25T07:02:15;8.13;;;5.50;;
59492;SDS011;45497;43.996;22.876;2022-11-25T07:04:41;12.73;;;7.00;;
59492;SDS011;45497;43.996;22.876;2022-11-25T07:07:07;8.17;;;5.23;;
59492;SDS011;45497;43.996;22.876;2022-11-25T07:09:32;7.40;;;5.23;;
59492;SDS011;45497;43.996;22.876;2022-11-25T07:11:58;9.13;;;5.13;;
59492;SDS011;45497;43.996;22.876;2022-11-25T07:14:23;8.15;;;5.72;;
59492;SDS011;45497;43.996;22.876;2022-11-25T07:16:49;9.87;;;6.30;;
59492;SDS011;45497;43.996;22.876;2022-11-25T07:19:15;9.27;;;5.10;;
59492;SDS011;45497;43.996;22.876;2022-11-25T07:21:42;8.40;;;5.28;;
59492;SDS011;45497;43.996;22.876;2022-11-25T07:24:10;8.10;;;5.13;;
59492;SDS011;45497;43.996;22.876;2022-11-25T07:26:38;12.05;;;7.40;;
59492;SDS011;45497;43.996;22.876;2022-11-25T07:29:09;9.98;;;6.53;;
59492;SDS011;45497;43.996;22.876;2022-11-25T07:31:43;9.18;;;5.40;;
59492;SDS011;45497;43.996;22.876;2022-11-25T07:34:11;9.20;;;6.38;;
59492;SDS011;45497;43.996;22.876;2022-11-25T07:36:38;9.52;;;5.25;;
59492;SDS011;45497;43.996;22.876;2022-11-25T07:39:07;9.02;;;5.43;;
59492;SDS011;45497;43.996;22.876;2022-11-25T07:41:36;8.23;;;4.83;;
59492;SDS011;45497;43.996;22.876;2022-11-25T07:44:03;6.75;;;4.28;;
59492;SDS011;45497;43.996;22.876;2022-11-25T07:48:57;7.20;;;5.15;;
59492;SDS011;45497;43.996;22.876;2022-11-25T07:51:25;6.72;;;4.05;;
59492;SDS011;45497;43.996;22.876;2022-11-25T07:53:54;8.20;;;4.97;;
59492;SDS011;45497;43.996;22.876;2022-11-25T07:56:20;7.63;;;4.10;;
59492;SDS011;45497;43.996;22.876;2022-11-25T07:58:46;6.72;;;3.58;;
59492;SDS011;45497;43.996;22.876;2022-11-25T08:01:12;9.27;;;5.40;;
59492;SDS011;45497;43.996;22.876;2022-11-25T08:03:39;7.13;;;4.75;;
59492;SDS011;45497;43.996;22.876;2022-11-25T08:06:07;5.10;;;3.80;;
59492;SDS011;45497;43.996;22.876;2022-11-25T08:08:35;6.28;;;4.13;;
59492;SDS011;45497;43.996;22.876;2022-11-25T08:11:08;7.07;;;4.72;;
59492;SDS011;45497;43.996;22.876;2022-11-25T08:13:36;8.02;;;5.03;;
59492;SDS011;45497;43.996;22.876;2022-11-25T08:16:02;7.03;;;4.63;;
59492;SDS011;45497;43.996;22.876;2022-11-25T08:18:28;8.38;;;4.75;;
59492;SDS011;45497;43.996;22.876;2022-11-25T08:21:00;9.23;;;5.13;;
59492;SDS011;45497;43.996;22.876;2022-11-25T08:23:31;6.68;;;4.45;;
59492;SDS011;45497;43.996;22.876;2022-11-25T08:26:01;6.82;;;4.50;;
59492;SDS011;45497;43.996;22.876;2022-11-25T08:28:28;6.25;;;4.50;;
59492;SDS011;45497;43.996;22.876;2022-11-25T08:31:00;6.70;;;4.40;;
59492;SDS011;45497;43.996;22.876;2022-11-25T08:33:30;5.40;;;4.13;;
59492;SDS011;45497;43.996;22.876;2022-11-25T08:35:55;6.20;;;3.67;;
59492;SDS011;45497;43.996;22.876;2022-11-25T08:38:21;5.97;;;3.50;;
59492;SDS011;45497;43.996;22.876;2022-11-25T08:40:47;8.60;;;4.97;;
59492;SDS011;45497;43.996;22.876;2022-11-25T08:43:12;8.63;;;5.33;;
59492;SDS011;45497;43.996;22.876;2022-11-25T08:46:30;6.47;;;3.50;;
59492;SDS011;45497;43.996;22.876;2022-11-25T08:49:00;5.82;;;4.00;;
59492;SDS011;45497;43.996;22.876;2022-11-25T08:51:28;8.85;;;4.65;;
59492;SDS011;45497;43.996;22.876;2022-11-25T08:53:55;8.57;;;4.68;;
59492;SDS011;45497;43.996;22.876;2022-11-25T08:56:22;6.57;;;3.88;;
59492;SDS011;45497;43.996;22.876;2022-11-25T08:58:48;6.30;;;3.83;;
59492;SDS011;45497;43.996;22.876;2022-11-25T09:01:14;6.13;;;4.15;;
59492;SDS011;45497;43.996;22.876;2022-11-25T09:03:44;6.87;;;4.00;;
59492;SDS011;45497;43.996;22.876;2022-11-25T09:06:12;6.20;;;3.53;;
59492;SDS011;45497;43.996;22.876;2022-11-25T09:08:39;6.35;;;3.42;;
59492;SDS011;45497;43.996;22.876;2022-11-25T09:11:05;6.38;;;3.60;;
59492;SDS011;45497;43.996;22.876;2022-11-25T09:13:31;7.07;;;4.67;;
59492;SDS011;45497;43.996;22.876;2022-11-25T09:15:57;7.28;;;4.28;;
59492;SDS011;45497;43.996;22.876;2022-11-25T09:18:23;7.27;;;5.03;;
59492;SDS011;45497;43.996;22.876;2022-11-25T09:20:50;7.70;;;4.35;;
59492;SDS011;45497;43.996;22.876;2022-11-25T09:23:17;7.63;;;4.07;;
59492;SDS011;45497;43.996;22.876;2022-11-25T09:25:56;11.10;;;5.47;;
59492;SDS011;45497;43.996;22.876;2022-11-25T09:28:23;8.63;;;5.23;;
59492;SDS011;45497;43.996;22.876;2022-11-25T09:30:50;6.55;;;3.95;;
59492;SDS011;45497;43.996;22.876;2022-11-25T09:33:16;5.47;;;3.75;;
59492;SDS011;45497;43.996;22.876;2022-11-25T09:35:43;6.43;;;4.03;;
59492;SDS011;45497;43.996;22.876;2022-11-25T09:38:09;6.97;;;4.80;;
59492;SDS011;45497;43.996;22.876;2022-11-25T09:46:18;6.70;;;4.20;;
59492;SDS011;45497;43.996;22.876;2022-11-25T09:54:37;5.63;;;4.05;;
59492;SDS011;45497;43.996;22.876;2022-11-25T10:03:00;7.35;;;4.05;;
59492;SDS011;45497;43.996;22.876;2022-11-25T10:05:53;6.75;;;4.15;;
59492;SDS011;45497;43.996;22.876;2022-11-25T10:08:23;6.35;;;4.20;;
59492;SDS011;45497;43.996;22.876;2022-11-25T10:11:06;6.50;;;4.32;;
59492;SDS011;45497;43.996;22.876;2022-11-25T10:16:50;6.28;;;4.50;;
59492;SDS011;45497;43.996;22.876;2022-11-25T10:22:15;6.78;;;4.57;;
59492;SDS011;45497;43.996;22.876;2022-11-25T10:24:46;7.45;;;4.07;;
59492;SDS011;45497;43.996;22.876;2022-11-25T10:27:59;6.68;;;4.53;;
59492;SDS011;45497;43.996;22.876;2022-11-25T10:30:15;5.35;;;3.47;;
59492;SDS011;45497;43.996;22.876;2022-11-25T10:32:45;7.95;;;4.45;;
59492;SDS011;45497;43.996;22.876;2022-11-25T10:35:18;6.97;;;4.00;;
59492;SDS011;45497;43.996;22.876;2022-11-25T10:37:49;7.83;;;4.30;;
59492;SDS011;45497;43.996;22.876;2022-11-25T10:40:19;6.25;;;3.92;;
59492;SDS011;45497;43.996;22.876;2022-11-25T10:42:45;7.63;;;4.03;;
59492;SDS011;45497;43.996;22.876;2022-11-25T10:45:10;6.97;;;4.40;;
59492;SDS011;45497;43.996;22.876;2022-11-25T10:47:44;4.77;;;3.20;;
59492;SDS011;45497;43.996;22.876;2022-11-25T10:55:18;6.50;;;3.70;;
59492;SDS011;45497;43.996;22.876;2022-11-25T10:57:48;5.83;;;3.67;;
59492;SDS011;45497;43.996;22.876;2022-11-25T11:00:30;7.20;;;3.80;;
59492;SDS011;45497;43.996;22.876;2022-11-25T11:02:59;6.35;;;4.15;;
59492;SDS011;45497;43.996;22.876;2022-11-25T11:05:43;6.03;;;4.10;;
59492;SDS011;45497;43.996;22.876;2022-11-25T11:08:15;5.60;;;3.63;;
59492;SDS011;45497;43.996;22.876;2022-11-25T11:10:43;5.47;;;3.88;;
59492;SDS011;45497;43.996;22.876;2022-11-25T11:13:25;7.10;;;4.68;;
59492;SDS011;45497;43.996;22.876;2022-11-25T11:15:57;5.85;;;4.07;;
59492;SDS011;45497;43.996;22.876;2022-11-25T11:18:24;5.75;;;3.92;;
59492;SDS011;45497;43.996;22.876;2022-11-25T11:20:56;6.53;;;4.03;;
59492;SDS011;45497;43.996;22.876;2022-11-25T11:23:24;5.20;;;3.30;;
59492;SDS011;45497;43.996;22.876;2022-11-25T11:28:27;6.22;;;3.30;;
59492;SDS011;45497;43.996;22.876;2022-11-25T11:31:01;7.60;;;4.00;;
59492;SDS011;45497;43.996;22.876;2022-11-25T11:33:34;4.90;;;3.33;;
59492;SDS011;45497;43.996;22.876;2022-11-25T11:41:51;5.90;;;4.07;;
59492;SDS011;45497;43.996;22.876;2022-11-25T11:58:50;5.00;;;2.83;;
59492;SDS011;45497;43.996;22.876;2022-11-25T12:09:43;7.65;;;3.70;;
59492;SDS011;45497;43.996;22.876;2022-11-25T12:12:17;3.60;;;2.67;;
59492;SDS011;45497;43.996;22.876;2022-11-25T12:14:49;5.13;;;2.83;;
59492;SDS011;45497;43.996;22.876;2022-11-25T12:17:18;8.07;;;4.37;;
59492;SDS011;45497;43.996;22.876;2022-11-25T12:22:30;5.50;;;3.97;;
59492;SDS011;45497;43.996;22.876;2022-11-25T12:25:05;4.83;;;3.53;;
59492;SDS011;45497;43.996;22.876;2022-11-25T12:27:45;6.28;;;3.70;;
59492;SDS011;45497;43.996;22.876;2022-11-25T12:30:19;5.03;;;3.72;;
59492;SDS011;45497;43.996;22.876;2022-11-25T12:35:37;6.55;;;3.40;;
59492;SDS011;45497;43.996;22.876;2022-11-25T12:41:06;5.05;;;3.42;;
59492;SDS011;45497;43.996;22.876;2022-11-25T12:43:59;6.68;;;3.83;;
59492;SDS011;45497;43.996;22.876;2022-11-25T12:46:35;4.03;;;2.70;;
59492;SDS011;45497;43.996;22.876;2022-11-25T12:50:08;5.15;;;3.08;;
59492;SDS011;45497;43.996;22.876;2022-11-25T12:55:09;7.43;;;4.40;;
59492;SDS011;45497;43.996;22.876;2022-11-25T13:17:48;6.18;;;3.97;;
59492;SDS011;45497;43.996;22.876;2022-11-25T13:25:32;6.80;;;4.17;;
59492;SDS011;45497;43.996;22.876;2022-11-25T13:28:22;6.27;;;3.50;;
59492;SDS011;45497;43.996;22.876;2022-11-25T13:31:18;8.63;;;5.22;;
59492;SDS011;45497;43.996;22.876;2022-11-25T13:36:18;11.03;;;6.03;;
59492;SDS011;45497;43.996;22.876;2022-11-25T13:44:04;8.05;;;5.43;;
59492;SDS011;45497;43.996;22.876;2022-11-25T13:49:37;9.17;;;5.90;;
59492;SDS011;45497;43.996;22.876;2022-11-25T13:54:51;6.83;;;4.00;;
59492;SDS011;45497;43.996;22.876;2022-11-25T13:57:23;5.78;;;4.05;;
59492;SDS011;45497;43.996;22.876;2022-11-25T13:59:50;8.75;;;5.63;;
59492;SDS011;45497;43.996;22.876;2022-11-25T14:24:47;12.38;;;7.07;;
59492;SDS011;45497;43.996;22.876;2022-11-25T14:29:53;13.23;;;6.43;;
59492;SDS011;45497;43.996;22.876;2022-11-25T14:37:50;5.53;;;4.45;;
59492;SDS011;45497;43.996;22.876;2022-11-25T14:43:00;12.85;;;7.15;;
59492;SDS011;45497;43.996;22.876;2022-11-25T14:45:30;23.70;;;12.18;;
59492;SDS011;45497;43.996;22.876;2022-11-25T14:47:57;16.67;;;8.43;;
59492;SDS011;45497;43.996;22.876;2022-11-25T14:50:56;17.13;;;8.70;;
59492;SDS011;45497;43.996;22.876;2022-11-25T14:53:23;15.48;;;8.00;;
59492;SDS011;45497;43.996;22.876;2022-11-25T14:55:51;14.90;;;8.03;;
59492;SDS011;45497;43.996;22.876;2022-11-25T14:58:17;10.18;;;6.75;;
59492;SDS011;45497;43.996;22.876;2022-11-25T15:00:50;6.57;;;4.87;;
59492;SDS011;45497;43.996;22.876;2022-11-25T15:03:16;13.05;;;7.68;;
59492;SDS011;45497;43.996;22.876;2022-11-25T15:05:44;11.10;;;7.15;;
59492;SDS011;45497;43.996;22.876;2022-11-25T15:08:19;11.60;;;7.15;;
59492;SDS011;45497;43.996;22.876;2022-11-25T15:13:29;7.37;;;6.00;;
59492;SDS011;45497;43.996;22.876;2022-11-25T15:16:13;8.53;;;5.83;;
59492;SDS011;45497;43.996;22.876;2022-11-25T15:18:52;9.35;;;6.38;;
59492;SDS011;45497;43.996;22.876;2022-11-25T15:21:41;13.20;;;8.35;;
59492;SDS011;45497;43.996;22.876;2022-11-25T15:24:16;22.13;;;16.30;;
59492;SDS011;45497;43.996;22.876;2022-11-25T15:26:49;17.60;;;9.50;;
59492;SDS011;45497;43.996;22.876;2022-11-25T15:29:16;14.25;;;9.77;;
59492;SDS011;45497;43.996;22.876;2022-11-25T15:31:42;19.75;;;10.40;;
59492;SDS011;45497;43.996;22.876;2022-11-25T15:34:11;12.95;;;7.80;;
59492;SDS011;45497;43.996;22.876;2022-11-25T15:36:38;85.35;;;32.95;;
59492;SDS011;45497;43.996;22.876;2022-11-25T15:46:52;26.42;;;15.43;;
59492;SDS011;45497;43.996;22.876;2022-11-25T15:49:22;13.20;;;9.07;;
59492;SDS011;45497;43.996;22.876;2022-11-25T15:51:55;18.17;;;11.20;;
59492;SDS011;45497;43.996;22.876;2022-11-25T15:54:27;14.45;;;10.60;;
59492;SDS011;45497;43.996;22.876;2022-11-25T15:57:02;19.08;;;11.43;;
59492;SDS011;45497;43.996;22.876;2022-11-25T16:08:00;13.90;;;9.32;;
59492;SDS011;45497;43.996;22.876;2022-11-25T16:10:32;11.73;;;7.78;;
59492;SDS011;45497;43.996;22.876;2022-11-25T16:18:17;23.92;;;13.25;;
59492;SDS011;45497;43.996;22.876;2022-11-25T16:20:46;12.82;;;9.32;;
59492;SDS011;45497;43.996;22.876;2022-11-25T16:23:14;14.10;;;8.85;;
59492;SDS011;45497;43.996;22.876;2022-11-25T16:25:58;20.00;;;11.40;;
59492;SDS011;45497;43.996;22.876;2022-11-25T16:28:26;16.33;;;8.00;;
59492;SDS011;45497;43.996;22.876;2022-11-25T16:30:52;17.25;;;11.00;;
59492;SDS011;45497;43.996;22.876;2022-11-25T16:33:22;20.15;;;9.75;;
59492;SDS011;45497;43.996;22.876;2022-11-25T16:35:48;17.08;;;10.13;;
59492;SDS011;45497;43.996;22.876;2022-11-25T16:38:13;12.73;;;9.15;;
59492;SDS011;45497;43.996;22.876;2022-11-25T16:40:39;12.70;;;8.63;;
59492;SDS011;45497;43.996;22.876;2022-11-25T16:43:20;12.67;;;8.37;;
59492;SDS011;45497;43.996;22.876;2022-11-25T16:45:48;16.53;;;11.67;;
59492;SDS011;45497;43.996;22.876;2022-11-25T16:48:16;12.63;;;9.57;;
59492;SDS011;45497;43.996;22.876;2022-11-25T16:50:43;14.32;;;10.55;;
59492;SDS011;45497;43.996;22.876;2022-11-25T16:53:09;16.67;;;10.10;;
59492;SDS011;45497;43.996;22.876;2022-11-25T16:55:35;16.50;;;9.20;;
59492;SDS011;45497;43.996;22.876;2022-11-25T16:58:03;12.30;;;7.65;;
59492;SDS011;45497;43.996;22.876;2022-11-25T17:00:33;13.65;;;9.55;;
59492;SDS011;45497;43.996;22.876;2022-11-25T17:02:58;12.33;;;8.13;;
59492;SDS011;45497;43.996;22.876;2022-11-25T17:05:24;9.60;;;7.27;;
59492;SDS011;45497;43.996;22.876;2022-11-25T17:07:51;11.02;;;8.00;;
59492;SDS011;45497;43.996;22.876;2022-11-25T17:10:17;11.32;;;7.40;;
59492;SDS011;45497;43.996;22.876;2022-11-25T17:12:43;10.70;;;7.55;;
59492;SDS011;45497;43.996;22.876;2022-11-25T17:15:15;16.23;;;8.95;;
59492;SDS011;45497;43.996;22.876;2022-11-25T17:17:43;26.80;;;12.17;;
59492;SDS011;45497;43.996;22.876;2022-11-25T17:20:15;21.30;;;11.35;;
59492;SDS011;45497;43.996;22.876;2022-11-25T17:22:42;15.02;;;9.00;;
59492;SDS011;45497;43.996;22.876;2022-11-25T17:25:10;12.02;;;6.05;;
59492;SDS011;45497;43.996;22.876;2022-11-25T17:27:36;14.40;;;8.52;;
59492;SDS011;45497;43.996;22.876;2022-11-25T17:30:04;12.57;;;8.18;;
59492;SDS011;45497;43.996;22.876;2022-11-25T17:32:31;12.82;;;8.63;;
59492;SDS011;45497;43.996;22.876;2022-11-25T17:34:57;10.77;;;7.53;;
59492;SDS011;45497;43.996;22.876;2022-11-25T17:37:23;9.48;;;5.53;;
59492;SDS011;45497;43.996;22.876;2022-11-25T17:39:50;12.13;;;8.32;;